Wednesday, December 12, 2018, 10:56 PM EST
Back to Local

KACY, Atlantic City International

Location: Absecon, NJ, United States Lat: 39.467
Local Time: 10:56 PM EST ( 3:56 GMT) Lon: -74.583
Time Zone: US/Eastern Elev: 75 ft

Show me the last for .
Show Coded

Time T Td Feel RH Dir Speed Gust Alt SLP Vis Weather Sky Remarks
2018-12-12 21:54 26 23 - 87 - Calm - 30.24 30.24 10 CLR None
2018-12-12 20:54 28 23 - 81 - Calm - 30.25 30.24 10 CLR None
2018-12-12 19:54 32 25 - 74 - Calm - 30.23 30.23 10 CLR None
2018-12-12 18:54 35 25 - 66 - Calm - 30.23 30.23 10 CLR 6-hr Min Temp (7pm): 33.1°F
6-hr Max Temp (7pm): 45.0°F
2018-12-12 17:54 37 25 34 61 220° 3 - 30.21 30.21 10 CLR None
2018-12-12 16:54 39 25 37 56 230° 3 - 30.19 30.19 10 CLR None
2018-12-12 15:54 42 25 39 50 270° 5 - 30.17 30.17 10 CLR None
2018-12-12 14:54 45 25 41 45 300° 8 - 30.15 30.15 10 CLR None
2018-12-12 13:54 44 25 42 46 330° 5 - 30.15 30.15 10 FEW046 None
2018-12-12 12:54 44 25 40 46 290° 8 - 30.15 30.15 10 CLR 6-hr Min Temp (1pm): 30.0°F
6-hr Max Temp (1pm): 45.0°F
2018-12-12 11:54 43 26 37 50 290° 10 - 30.16 30.16 10 CLR None
2018-12-12 10:54 42 27 36 54 310° 10 - 30.18 30.18 10 CLR None
2018-12-12 09:54 39 27 32 61 310° 12 - 30.18 30.18 8 CLR None
2018-12-12 08:54 36 26 28 66 290° 10 - 30.16 30.16 7 CLR None
2018-12-12 07:54 31 24 23 75 270° 8 - 30.14 30.14 6 HZ CLR None
2018-12-12 06:54 31 23 24 72 270° 7 - 30.12 30.12 8 CLR 6-hr Min Temp (7am): 25.0°F
6-hr Max Temp (7am): 33.1°F
2018-12-12 05:54 30 23 22 74 300° 8 - 30.10 30.10 8 CLR None
2018-12-12 04:54 33 24 26 69 300° 8 - 30.06 30.06 8 OVC050 None
2018-12-12 03:54 32 24 25 72 290° 8 - 30.05 30.04 8 OVC060 None
2018-12-12 02:54 31 24 24 75 290° 7 - 30.04 30.04 8 OVC055 None
2018-12-12 01:54 27 22 23 80 290° 3 - 30.03 30.03 8 SCT070 None
2018-12-12 00:54 29 23 - 78 - Calm - 30.01 30.01 8 BKN075 6-hr Min Temp (1am): 26.1°F
6-hr Max Temp (1am): 34.0°F
2018-12-11 23:54 27 22 - 80 - Calm - 30.02 30.02 9 SCT075 24-hr Min Temp (12am): 21.9°F
24-hr Max Temp (12am): 46.0°F

Support USWX by starting your Amazon purchase here.